METAR Data
IDs: Format: Raw Decoded Include TAF

Data at: 2012 UTC 01 Oct 2022

EDDV 011950Z AUTO 25007KT CAVOK 11/09 Q1009 NOSIG

TAF EDDV 011700Z 0118/0218 26008KT 9999 FEW030
  PROB30
  TEMPO 0202/0207 BKN008
  PROB30
  TEMPO 0210/0214 28015G25KT